createdAt,value
2022-10-01T00:00:32.520Z,11.80
2022-10-01T00:01:33.229Z,12.20
2022-10-01T00:02:39.818Z,11.60
2022-10-01T00:03:32.091Z,11.80
2022-10-01T00:04:49.726Z,11.50
2022-10-01T00:05:32.037Z,12.50
2022-10-01T00:07:13.889Z,11.60
2022-10-01T00:07:32.946Z,12.30
2022-10-01T00:08:41.802Z,12.00
2022-10-01T00:09:32.042Z,12.30
2022-10-01T00:10:31.946Z,12.70
2022-10-01T00:11:36.312Z,12.90
2022-10-01T00:12:38.728Z,12.30
2022-10-01T00:13:31.953Z,12.30
2022-10-01T00:14:32.009Z,12.60
2022-10-01T00:15:34.780Z,12.80
2022-10-01T00:16:32.156Z,12.50
2022-10-01T00:17:40.243Z,12.90
2022-10-01T00:18:32.167Z,11.90
2022-10-01T00:19:33.461Z,12.90
2022-10-01T00:20:32.420Z,12.60
2022-10-01T00:21:36.008Z,12.50
2022-10-01T00:22:31.854Z,12.30
2022-10-01T00:23:38.590Z,13.10
2022-10-01T00:24:32.572Z,12.90
2022-10-01T00:25:32.150Z,13.50
2022-10-01T00:26:32.057Z,14.20
2022-10-01T00:27:33.946Z,12.70
2022-10-01T00:28:38.462Z,12.10
2022-10-01T00:29:32.456Z,14.30
2022-10-01T00:30:32.022Z,12.50
2022-10-01T00:31:33.625Z,12.50
2022-10-01T00:32:32.882Z,12.00
2022-10-01T00:34:25.693Z,11.90
2022-10-01T00:35:26.349Z,12.50
2022-10-01T00:36:25.298Z,12.00
2022-10-01T00:37:25.277Z,12.50
2022-10-01T00:38:25.236Z,12.10
2022-10-01T00:39:32.284Z,12.00
2022-10-01T00:40:25.408Z,12.00
2022-10-01T00:41:25.468Z,11.80
2022-10-01T00:42:25.266Z,12.30
2022-10-01T00:43:26.131Z,12.00
2022-10-01T00:44:25.715Z,11.40
2022-10-01T00:45:31.616Z,12.50
2022-10-01T00:46:27.160Z,11.50
2022-10-01T00:47:25.268Z,11.60
2022-10-01T00:48:29.237Z,11.80
2022-10-01T00:49:33.150Z,11.70
2022-10-01T00:50:25.557Z,11.60
2022-10-01T00:51:32.369Z,11.90
2022-10-01T00:52:26.950Z,11.30
2022-10-01T00:53:26.702Z,12.20
2022-10-01T00:54:25.532Z,11.10
2022-10-01T00:55:25.095Z,11.40
2022-10-01T00:56:32.024Z,12.30
2022-10-01T00:57:31.630Z,10.70
2022-10-01T00:58:25.207Z,11.60
2022-10-01T00:59:25.323Z,11.80
2022-10-01T01:00:25.328Z,11.60
2022-10-01T01:01:26.161Z,10.70
2022-10-01T01:02:33.542Z,11.50
2022-10-01T01:03:25.588Z,11.10
2022-10-01T01:04:26.034Z,12.50
2022-10-01T01:05:25.334Z,12.10
2022-10-01T01:06:25.506Z,12.30
2022-10-01T01:07:32.610Z,12.00
2022-10-01T01:08:26.015Z,11.80
2022-10-01T01:09:26.077Z,12.00
2022-10-01T01:10:25.166Z,11.10
2022-10-01T01:11:25.561Z,12.40
2022-10-01T01:12:25.142Z,11.30
2022-10-01T01:13:33.661Z,12.00
2022-10-01T01:14:26.256Z,12.20
2022-10-01T01:15:25.994Z,12.50
2022-10-01T01:16:26.884Z,10.70
2022-10-01T01:17:35.743Z,11.10
2022-10-01T01:18:31.655Z,12.00
2022-10-01T01:19:41.235Z,12.80
2022-10-01T01:20:25.602Z,11.60
2022-10-01T01:21:29.043Z,11.60
2022-10-01T01:22:25.943Z,12.20
2022-10-01T01:23:34.644Z,12.10
2022-10-01T01:24:31.043Z,11.80
2022-10-01T01:25:24.969Z,11.40
2022-10-01T01:26:25.232Z,11.50
2022-10-01T01:27:27.983Z,11.50
2022-10-01T01:28:31.150Z,12.10
2022-10-01T01:29:24.819Z,11.80
2022-10-01T01:30:25.881Z,11.60
2022-10-01T01:31:31.245Z,11.60
2022-10-01T01:32:25.089Z,11.30
2022-10-01T01:33:26.022Z,11.40
2022-10-01T01:34:31.209Z,11.80
2022-10-01T01:35:24.845Z,11.50
2022-10-01T01:36:25.484Z,11.60
2022-10-01T01:37:25.542Z,11.30
2022-10-01T01:38:27.178Z,12.50
2022-10-01T01:39:24.845Z,11.80
2022-10-01T01:40:31.251Z,11.30
2022-10-01T01:41:25.416Z,11.50
2022-10-01T01:43:05.801Z,11.70
2022-10-01T01:43:24.454Z,10.80
2022-10-01T01:44:46.270Z,10.80
2022-10-01T01:45:33.157Z,10.90
2022-10-01T01:46:34.779Z,11.30
2022-10-01T01:47:24.517Z,11.20
2022-10-01T01:48:24.530Z,11.00
2022-10-01T01:49:24.477Z,11.10
2022-10-01T01:50:31.610Z,11.70
2022-10-01T01:51:24.963Z,11.40
2022-10-01T01:52:24.325Z,11.90
2022-10-01T01:53:30.707Z,11.60
2022-10-01T01:54:24.398Z,11.30
2022-10-01T01:55:30.809Z,11.20
2022-10-01T01:56:24.279Z,11.10
2022-10-01T01:57:25.071Z,11.30
2022-10-01T01:58:24.285Z,10.70
2022-10-01T01:59:28.241Z,10.90
2022-10-01T02:00:24.723Z,11.30
2022-10-01T02:01:32.536Z,10.90
2022-10-01T02:02:24.268Z,12.10
2022-10-01T02:03:24.429Z,11.20
2022-10-01T02:04:25.369Z,12.50
2022-10-01T02:05:34.481Z,11.70
2022-10-01T02:06:25.357Z,11.70
2022-10-01T02:07:31.323Z,12.30
2022-10-01T02:08:24.199Z,12.80
2022-10-01T02:09:25.191Z,12.90
2022-10-01T02:10:24.019Z,13.50
2022-10-01T02:11:36.307Z,12.30
2022-10-01T02:12:24.999Z,13.40
2022-10-01T02:13:30.608Z,13.80
2022-10-01T02:14:45.659Z,12.20
2022-10-01T02:15:25.205Z,13.70
2022-10-01T02:16:24.508Z,13.30
2022-10-01T02:17:25.079Z,13.30
2022-10-01T02:18:30.632Z,13.00
2022-10-01T02:19:25.222Z,12.20
2022-10-01T02:20:24.755Z,12.60
2022-10-01T02:21:24.401Z,12.20
2022-10-01T02:22:24.310Z,13.60
2022-10-01T02:23:24.339Z,13.30
2022-10-01T02:24:30.695Z,12.40
2022-10-01T02:25:23.971Z,12.70
2022-10-01T02:26:26.365Z,12.80
2022-10-01T02:27:24.823Z,12.10
2022-10-01T02:28:25.005Z,12.90
2022-10-01T02:29:31.440Z,13.20
2022-10-01T02:30:31.072Z,12.20
2022-10-01T02:31:24.186Z,12.80
2022-10-01T02:32:45.384Z,12.90
2022-10-01T02:33:24.305Z,12.60
2022-10-01T02:34:44.921Z,11.50
2022-10-01T02:35:32.512Z,12.30
2022-10-01T02:37:08.049Z,11.10
2022-10-01T02:38:09.586Z,12.10
2022-10-01T02:39:08.658Z,11.60
2022-10-01T02:40:09.816Z,12.70
2022-10-01T02:41:08.381Z,12.70
2022-10-01T02:42:08.269Z,12.80
2022-10-01T02:43:09.492Z,11.50
2022-10-01T02:44:08.410Z,11.90
2022-10-01T02:45:14.158Z,13.00
2022-10-01T02:46:16.837Z,12.10
2022-10-01T02:47:08.254Z,11.70
2022-10-01T02:48:08.306Z,12.00
2022-10-01T02:49:08.609Z,12.20
2022-10-01T02:50:10.371Z,12.40
2022-10-01T02:51:23.162Z,11.40
2022-10-01T02:52:08.179Z,12.00
2022-10-01T02:53:09.906Z,12.10
2022-10-01T02:54:08.158Z,12.10
2022-10-01T02:55:31.003Z,11.90
2022-10-01T02:56:08.084Z,12.30
2022-10-01T02:57:14.402Z,11.60
2022-10-01T02:58:09.018Z,10.80
2022-10-01T02:59:09.290Z,12.00
2022-10-01T03:00:08.328Z,12.10
2022-10-01T03:01:08.511Z,12.30
2022-10-01T03:02:14.665Z,12.00
2022-10-01T03:03:07.982Z,12.40
2022-10-01T03:04:07.994Z,12.50
2022-10-01T03:05:07.942Z,11.80
2022-10-01T03:06:28.913Z,11.00
2022-10-01T03:07:07.987Z,12.00
2022-10-01T03:08:15.021Z,11.90
2022-10-01T03:09:08.781Z,11.80
2022-10-01T03:10:12.085Z,12.10
2022-10-01T03:11:08.367Z,12.30
2022-10-01T03:12:08.761Z,11.30
2022-10-01T03:13:07.785Z,11.40
2022-10-01T03:14:23.230Z,12.40
2022-10-01T03:15:08.923Z,11.50
2022-10-01T03:16:14.040Z,11.70
2022-10-01T03:17:08.776Z,11.30
2022-10-01T03:18:13.679Z,10.90
2022-10-01T03:19:08.197Z,11.20
2022-10-01T03:20:15.310Z,10.80
2022-10-01T03:21:08.106Z,10.10
2022-10-01T03:22:08.226Z,11.10
2022-10-01T03:23:07.720Z,11.70
2022-10-01T03:24:09.821Z,10.90
2022-10-01T03:25:07.765Z,11.00
2022-10-01T03:26:14.206Z,10.70
2022-10-01T03:27:08.085Z,10.90
2022-10-01T03:28:08.455Z,9.90
2022-10-01T03:29:09.242Z,10.40
2022-10-01T03:30:09.831Z,10.40
2022-10-01T03:31:07.655Z,11.10
2022-10-01T03:32:15.039Z,11.20
2022-10-01T03:33:07.530Z,10.30
2022-10-01T03:34:07.522Z,10.70
2022-10-01T03:35:07.602Z,10.60
2022-10-01T03:36:07.896Z,10.30
2022-10-01T03:37:14.728Z,10.50
2022-10-01T03:38:07.455Z,10.40
2022-10-01T03:39:07.528Z,10.80
2022-10-01T03:40:08.307Z,10.40
2022-10-01T03:41:08.455Z,10.20
2022-10-01T03:42:09.886Z,9.90
2022-10-01T03:43:26.226Z,9.40
2022-10-01T03:44:08.153Z,10.10
2022-10-01T03:45:07.456Z,9.80
2022-10-01T03:46:07.438Z,9.80
2022-10-01T03:47:07.355Z,10.20
2022-10-01T03:48:07.470Z,10.30
2022-10-01T03:49:14.386Z,9.70
2022-10-01T03:50:07.737Z,10.00
2022-10-01T03:51:07.338Z,10.00
2022-10-01T03:52:07.308Z,10.10
2022-10-01T03:53:08.437Z,8.90
2022-10-01T03:54:08.967Z,9.70
2022-10-01T03:55:13.779Z,9.30
2022-10-01T03:56:08.556Z,9.70
2022-10-01T03:57:07.344Z,9.20
2022-10-01T03:58:32.890Z,10.20
2022-10-01T03:59:07.258Z,9.40
2022-10-01T04:00:13.627Z,10.10
2022-10-01T04:01:07.212Z,9.90
2022-10-01T04:02:07.306Z,10.30
2022-10-01T04:03:09.068Z,9.50
2022-10-01T04:04:08.189Z,9.50
2022-10-01T04:05:07.605Z,10.20
2022-10-01T04:06:15.191Z,9.40
2022-10-01T04:07:07.089Z,9.40
2022-10-01T04:08:08.079Z,9.20
2022-10-01T04:09:08.187Z,9.90
2022-10-01T04:10:23.757Z,9.40
2022-10-01T04:11:08.310Z,9.70
2022-10-01T04:12:13.518Z,9.00
2022-10-01T04:13:07.366Z,9.70
2022-10-01T04:14:06.957Z,9.70
2022-10-01T04:15:07.167Z,8.80
2022-10-01T04:16:08.178Z,9.00
2022-10-01T04:17:13.863Z,9.30
2022-10-01T04:18:07.871Z,8.90
2022-10-01T04:19:06.992Z,8.50
2022-10-01T04:20:07.000Z,9.10
2022-10-01T04:21:13.235Z,9.30
2022-10-01T04:22:06.973Z,8.40
2022-10-01T04:23:13.496Z,8.60
2022-10-01T04:24:06.791Z,8.10
2022-10-01T04:25:09.107Z,8.50
2022-10-01T04:26:06.924Z,8.60
2022-10-01T04:27:06.923Z,8.60
2022-10-01T04:28:07.180Z,8.60
2022-10-01T04:29:15.225Z,9.00
2022-10-01T04:30:06.758Z,9.30
2022-10-01T04:31:29.872Z,8.40
2022-10-01T04:32:07.641Z,8.10
2022-10-01T04:33:07.029Z,9.00
2022-10-01T04:34:06.708Z,8.60
2022-10-01T04:35:23.439Z,8.40
2022-10-01T04:36:07.917Z,7.80
2022-10-01T04:37:07.406Z,8.80
2022-10-01T04:38:13.552Z,8.70
2022-10-01T04:39:07.054Z,8.30
2022-10-01T04:40:06.956Z,8.00
2022-10-01T04:41:13.343Z,7.90
2022-10-01T04:42:06.572Z,8.70
2022-10-01T04:43:06.775Z,8.80
2022-10-01T04:44:06.785Z,8.60
2022-10-01T04:45:06.693Z,8.50
2022-10-01T04:46:11.712Z,8.10
2022-10-01T04:47:06.727Z,8.50
2022-10-01T04:48:06.461Z,8.10
2022-10-01T04:49:06.928Z,8.60
2022-10-01T04:50:06.788Z,9.00
2022-10-01T04:51:12.784Z,8.80
2022-10-01T04:52:27.995Z,7.50
2022-10-01T04:53:06.493Z,7.70
2022-10-01T04:54:06.645Z,7.90
2022-10-01T04:55:06.463Z,8.00
2022-10-01T04:56:06.684Z,8.00
2022-10-01T04:57:13.167Z,7.50
2022-10-01T04:58:09.545Z,8.10
2022-10-01T04:59:06.813Z,8.60
2022-10-01T05:00:12.302Z,8.00
2022-10-01T05:01:06.685Z,7.50
2022-10-01T05:02:06.597Z,8.00
2022-10-01T05:03:13.054Z,7.80
2022-10-01T05:04:06.459Z,7.50
2022-10-01T05:05:06.623Z,8.10
2022-10-01T05:06:06.758Z,8.20
2022-10-01T05:07:06.519Z,7.40
2022-10-01T05:08:06.825Z,8.00
2022-10-01T05:09:12.579Z,7.30
2022-10-01T05:10:07.490Z,8.10
2022-10-01T05:11:06.482Z,7.70
2022-10-01T05:12:06.599Z,8.00
2022-10-01T05:13:06.215Z,6.90
2022-10-01T05:14:06.213Z,6.90
2022-10-01T05:15:13.760Z,7.30
2022-10-01T05:16:06.287Z,6.80
2022-10-01T05:17:06.997Z,7.60
2022-10-01T05:18:06.577Z,7.90
2022-10-01T05:19:21.731Z,6.80
2022-10-01T05:20:06.717Z,7.80
2022-10-01T05:21:49.168Z,6.40
2022-10-01T05:22:49.694Z,7.30
2022-10-01T05:23:49.563Z,7.00
2022-10-01T05:24:49.282Z,8.00
2022-10-01T05:25:49.180Z,7.30
2022-10-01T05:26:49.228Z,7.00
2022-10-01T05:28:02.765Z,6.60
2022-10-01T05:28:49.497Z,7.40
2022-10-01T05:30:16.879Z,7.70
2022-10-01T05:30:49.303Z,7.00
2022-10-01T05:32:02.528Z,6.70
2022-10-01T05:32:49.295Z,6.60
2022-10-01T05:34:03.154Z,7.00
2022-10-01T05:34:53.417Z,7.00
2022-10-01T05:35:51.060Z,6.80
2022-10-01T05:36:56.152Z,7.20
2022-10-01T05:38:13.223Z,7.20
2022-10-01T05:38:49.396Z,7.00
2022-10-01T05:40:11.315Z,7.40
2022-10-01T05:40:49.371Z,7.40
2022-10-01T05:41:56.603Z,7.40
2022-10-01T05:42:49.128Z,6.60
2022-10-01T05:43:48.985Z,6.80
2022-10-01T05:44:49.433Z,7.30
2022-10-01T05:45:49.237Z,7.10
2022-10-01T05:46:55.298Z,6.90
2022-10-01T05:47:49.431Z,6.60
2022-10-01T05:48:49.838Z,6.90
2022-10-01T05:49:48.998Z,6.90
2022-10-01T05:50:48.970Z,6.40
2022-10-01T05:51:55.221Z,6.10
2022-10-01T05:52:49.149Z,7.00
2022-10-01T05:53:50.455Z,7.50
2022-10-01T05:54:48.919Z,6.80
2022-10-01T05:55:57.250Z,7.50
2022-10-01T05:56:55.028Z,6.80
2022-10-01T05:57:48.996Z,6.60
2022-10-01T05:58:49.498Z,7.30
2022-10-01T05:59:49.028Z,6.50
2022-10-01T06:01:06.566Z,6.80
2022-10-01T06:01:55.505Z,6.20
2022-10-01T06:03:31.796Z,6.70
2022-10-01T06:03:48.679Z,6.30
2022-10-01T06:05:00.915Z,6.70
2022-10-01T06:05:49.334Z,6.50
2022-10-01T06:06:57.156Z,6.60
2022-10-01T06:07:49.380Z,6.60
2022-10-01T06:08:48.762Z,6.40
2022-10-01T06:09:48.505Z,6.20
2022-10-01T06:10:48.907Z,6.30
2022-10-01T06:11:56.103Z,5.80
2022-10-01T06:12:49.901Z,6.40
2022-10-01T06:13:48.562Z,6.50
2022-10-01T06:14:50.504Z,5.70
2022-10-01T06:15:48.541Z,6.50
2022-10-01T06:16:48.668Z,6.40
2022-10-01T06:17:55.169Z,5.70
2022-10-01T06:18:48.567Z,5.70
2022-10-01T06:19:48.720Z,6.60
2022-10-01T06:20:48.496Z,6.30
2022-10-01T06:21:51.193Z,7.00
2022-10-01T06:22:54.909Z,6.40
2022-10-01T06:23:48.461Z,6.60
2022-10-01T06:24:49.170Z,6.40
2022-10-01T06:26:03.922Z,6.50
2022-10-01T06:26:48.410Z,6.40
2022-10-01T06:28:11.296Z,6.30
2022-10-01T06:28:48.419Z,5.80
2022-10-01T06:29:55.852Z,6.20
2022-10-01T06:30:48.767Z,6.50
2022-10-01T06:31:54.976Z,6.40
2022-10-01T06:32:48.498Z,6.20
2022-10-01T06:33:58.337Z,6.00
2022-10-01T06:34:50.535Z,6.70
2022-10-01T06:35:48.589Z,6.00
2022-10-01T06:36:48.627Z,6.10
2022-10-01T06:37:49.446Z,6.40
2022-10-01T06:38:55.262Z,6.40
2022-10-01T06:39:48.366Z,5.80
2022-10-01T06:40:48.462Z,5.60
2022-10-01T06:42:09.928Z,6.20
2022-10-01T06:42:48.515Z,6.90
2022-10-01T06:43:48.315Z,5.60
2022-10-01T06:44:54.576Z,5.80
2022-10-01T06:45:48.409Z,6.00
2022-10-01T06:47:09.541Z,5.80
2022-10-01T06:47:48.556Z,6.20
2022-10-01T06:48:49.910Z,6.40
2022-10-01T06:49:48.998Z,5.20
2022-10-01T06:50:55.416Z,6.00
2022-10-01T06:51:49.374Z,5.90
2022-10-01T06:52:49.389Z,6.50
2022-10-01T06:53:48.456Z,5.80
2022-10-01T06:54:49.518Z,5.50
2022-10-01T06:56:18.273Z,5.20
2022-10-01T06:57:19.615Z,5.60
2022-10-01T06:58:18.292Z,5.80
2022-10-01T06:59:18.654Z,6.30
2022-10-01T07:00:18.642Z,6.20
2022-10-01T07:01:27.708Z,5.90
2022-10-01T07:02:18.845Z,6.80
2022-10-01T07:03:27.466Z,5.80
2022-10-01T07:04:20.392Z,5.10
2022-10-01T07:05:18.159Z,6.30
2022-10-01T07:06:18.603Z,6.00
2022-10-01T07:07:29.382Z,5.90
2022-10-01T07:08:21.237Z,5.70
2022-10-01T07:09:18.459Z,5.70
2022-10-01T07:10:18.092Z,6.20
2022-10-01T07:11:18.290Z,6.10
2022-10-01T07:12:24.744Z,6.50
2022-10-01T07:13:18.681Z,6.30
2022-10-01T07:14:18.039Z,5.90
2022-10-01T07:15:18.209Z,6.30
2022-10-01T07:16:18.455Z,6.20
2022-10-01T07:17:39.732Z,5.70
2022-10-01T07:18:24.810Z,6.30
2022-10-01T07:19:18.265Z,6.20
2022-10-01T07:20:23.526Z,6.10
2022-10-01T07:22:01.905Z,5.20
2022-10-01T07:23:08.803Z,5.90
2022-10-01T07:24:28.641Z,7.20
2022-10-01T07:25:01.793Z,5.80
2022-10-01T07:26:26.919Z,6.20
2022-10-01T07:27:06.472Z,6.10
2022-10-01T07:28:22.110Z,5.80
2022-10-01T07:29:02.058Z,6.20
2022-10-01T07:30:01.861Z,5.90
2022-10-01T07:31:01.848Z,5.50
2022-10-01T07:32:02.999Z,5.80
2022-10-01T07:33:07.973Z,5.70
2022-10-01T07:34:01.916Z,5.60
2022-10-01T07:35:02.526Z,5.70
2022-10-01T07:36:02.433Z,6.00
2022-10-01T07:37:01.578Z,5.70
2022-10-01T07:38:01.407Z,5.20
2022-10-01T07:39:08.716Z,6.40
2022-10-01T07:40:06.575Z,6.50
2022-10-01T07:41:03.071Z,6.60
2022-10-01T07:42:01.775Z,6.10
2022-10-01T07:43:14.592Z,5.90
2022-10-01T07:44:08.181Z,5.80
2022-10-01T07:45:01.883Z,6.10
2022-10-01T07:46:02.165Z,6.10
2022-10-01T07:47:26.277Z,5.80
2022-10-01T07:48:01.830Z,6.00
2022-10-01T07:49:04.445Z,5.70
2022-10-01T07:50:13.533Z,6.10
2022-10-01T07:51:04.469Z,6.40
2022-10-01T07:52:01.655Z,5.80
2022-10-01T07:53:09.224Z,6.10
2022-10-01T07:54:01.961Z,6.60
2022-10-01T07:55:24.645Z,5.90
2022-10-01T07:56:02.602Z,5.90
2022-10-01T07:57:02.302Z,6.30
2022-10-01T07:58:01.766Z,5.90
2022-10-01T07:59:01.310Z,6.40
2022-10-01T08:00:02.719Z,5.80
2022-10-01T08:01:07.902Z,6.10
2022-10-01T08:02:01.148Z,5.90
2022-10-01T08:03:01.584Z,6.00
2022-10-01T08:04:08.498Z,5.50
2022-10-01T08:05:01.266Z,5.40
2022-10-01T08:06:01.737Z,6.30
2022-10-01T08:07:08.712Z,5.80
2022-10-01T08:08:02.005Z,5.40
2022-10-01T08:09:01.771Z,6.40
2022-10-01T08:10:15.996Z,6.50
2022-10-01T08:11:01.577Z,5.60
2022-10-01T08:12:25.245Z,5.70
2022-10-01T08:13:00.963Z,5.60
2022-10-01T08:14:07.822Z,5.50
2022-10-01T08:15:24.029Z,5.70
2022-10-01T08:16:07.804Z,5.40
2022-10-01T08:17:01.497Z,6.00
2022-10-01T08:18:07.596Z,5.20
2022-10-01T08:19:02.225Z,5.30
2022-10-01T08:20:01.974Z,5.80
2022-10-01T08:21:02.143Z,5.50
2022-10-01T08:22:00.936Z,5.50
2022-10-01T08:23:00.973Z,5.50
2022-10-01T08:24:08.156Z,5.30
2022-10-01T08:25:01.040Z,5.40
2022-10-01T08:26:22.456Z,5.60
2022-10-01T08:27:00.853Z,6.30
2022-10-01T08:28:01.090Z,5.30
2022-10-01T08:29:44.520Z,5.10
2022-10-01T08:30:46.052Z,5.20
2022-10-01T08:31:46.106Z,5.60
2022-10-01T08:32:46.376Z,5.40
2022-10-01T08:33:44.269Z,5.00
2022-10-01T08:34:44.258Z,5.90
2022-10-01T08:35:50.989Z,5.50
2022-10-01T08:36:44.401Z,5.10
2022-10-01T08:37:44.269Z,5.00
2022-10-01T08:38:44.357Z,5.30
2022-10-01T08:39:45.267Z,5.90
2022-10-01T08:40:50.696Z,5.60
2022-10-01T08:41:44.617Z,5.00
2022-10-01T08:42:44.389Z,5.30
2022-10-01T08:43:44.197Z,5.60
2022-10-01T08:44:44.154Z,6.30
2022-10-01T08:45:45.945Z,5.70
2022-10-01T08:46:51.807Z,5.40
2022-10-01T08:47:44.141Z,5.40
2022-10-01T08:48:44.047Z,4.90
2022-10-01T08:50:09.247Z,5.90
2022-10-01T08:50:44.403Z,5.20
2022-10-01T08:51:44.598Z,5.00
2022-10-01T08:52:50.576Z,5.70
2022-10-01T08:54:08.205Z,5.20
2022-10-01T08:54:43.978Z,5.70
2022-10-01T08:55:44.456Z,5.50
2022-10-01T08:56:44.033Z,5.40
2022-10-01T08:57:52.659Z,5.20
2022-10-01T08:58:44.081Z,5.60
2022-10-01T08:59:44.296Z,4.70
2022-10-01T09:00:43.929Z,4.80
2022-10-01T09:01:44.039Z,5.20
2022-10-01T09:02:43.833Z,4.80
2022-10-01T09:03:51.658Z,4.60
2022-10-01T09:04:43.869Z,4.10
2022-10-01T09:05:44.576Z,4.60
2022-10-01T09:06:43.984Z,4.10
2022-10-01T09:07:44.109Z,5.70
2022-10-01T09:08:51.878Z,3.60
2022-10-01T09:09:44.923Z,4.90
2022-10-01T09:10:43.919Z,3.90
2022-10-01T09:11:44.631Z,3.80
2022-10-01T09:12:43.660Z,3.90
2022-10-01T09:13:52.676Z,3.70
2022-10-01T09:14:43.869Z,4.10
2022-10-01T09:15:44.065Z,3.90
2022-10-01T09:16:43.783Z,3.80
2022-10-01T09:17:44.106Z,3.70
2022-10-01T09:19:16.241Z,3.60
2022-10-01T09:19:47.255Z,4.20
2022-10-01T09:21:15.266Z,4.30
2022-10-01T09:21:44.734Z,3.60
2022-10-01T09:22:46.698Z,3.90
2022-10-01T09:23:43.773Z,3.50
2022-10-01T09:24:43.753Z,3.70
2022-10-01T09:25:47.763Z,3.50
2022-10-01T09:26:44.314Z,3.40
2022-10-01T09:27:44.588Z,3.60
2022-10-01T09:28:44.962Z,2.90
2022-10-01T09:29:50.234Z,3.20
2022-10-01T09:30:45.212Z,3.00
2022-10-01T09:31:47.851Z,3.00
2022-10-01T09:32:43.655Z,2.80
2022-10-01T09:33:43.852Z,2.30
2022-10-01T09:34:51.716Z,2.90
2022-10-01T09:35:43.464Z,2.90
2022-10-01T09:36:45.889Z,3.10
2022-10-01T09:37:45.038Z,3.70
2022-10-01T09:38:43.543Z,2.50
2022-10-01T09:39:49.994Z,2.80
2022-10-01T09:40:43.701Z,2.40
2022-10-01T09:41:43.642Z,2.50
2022-10-01T09:42:43.289Z,2.60
2022-10-01T09:43:44.372Z,2.90
2022-10-01T09:44:44.839Z,2.40
2022-10-01T09:46:00.789Z,2.20
2022-10-01T09:46:44.214Z,3.10
2022-10-01T09:47:54.265Z,2.30
2022-10-01T09:48:43.552Z,1.80
2022-10-01T09:49:43.909Z,2.50
2022-10-01T09:50:50.166Z,1.80
2022-10-01T09:51:44.030Z,2.20
2022-10-01T09:52:43.942Z,1.80
2022-10-01T09:53:43.192Z,2.40
2022-10-01T09:54:43.806Z,1.70
2022-10-01T09:55:44.069Z,1.80
2022-10-01T09:56:49.752Z,1.80
2022-10-01T09:57:43.286Z,1.50
2022-10-01T09:58:45.755Z,2.20
2022-10-01T09:59:44.932Z,1.90
2022-10-01T10:00:51.662Z,1.40
2022-10-01T10:01:44.736Z,1.80
2022-10-01T10:03:01.894Z,1.40
2022-10-01T10:03:43.103Z,1.50
2022-10-01T10:04:44.357Z,1.70
2022-10-01T10:05:43.057Z,1.30
2022-10-01T10:06:45.262Z,1.50
2022-10-01T10:07:43.748Z,1.30
2022-10-01T10:08:50.469Z,1.50
2022-10-01T10:09:43.221Z,1.70
2022-10-01T10:10:47.264Z,1.60
2022-10-01T10:11:43.288Z,1.80
2022-10-01T10:13:04.977Z,1.70
2022-10-01T10:13:49.302Z,1.90
2022-10-01T10:14:43.872Z,1.80
2022-10-01T10:15:55.504Z,1.70
2022-10-01T10:16:43.995Z,2.10
2022-10-01T10:17:46.424Z,1.80
2022-10-01T10:18:49.995Z,1.80
2022-10-01T10:19:43.550Z,1.80
2022-10-01T10:20:43.881Z,1.90
2022-10-01T10:21:43.066Z,1.90
2022-10-01T10:22:43.754Z,1.80
2022-10-01T10:23:43.129Z,2.20
2022-10-01T10:24:56.287Z,2.10
2022-10-01T10:25:43.200Z,2.10
2022-10-01T10:26:43.058Z,2.60
2022-10-01T10:27:44.123Z,2.40
2022-10-01T10:28:45.519Z,2.40
2022-10-01T10:29:45.077Z,2.70
2022-10-01T10:30:49.718Z,2.50
2022-10-01T10:31:44.069Z,2.30
2022-10-01T10:32:42.753Z,2.40
2022-10-01T10:33:44.018Z,2.70
2022-10-01T10:34:45.159Z,2.80
2022-10-01T10:36:06.114Z,2.80
2022-10-01T10:36:49.567Z,2.90
2022-10-01T10:37:50.347Z,2.70
2022-10-01T10:38:43.047Z,2.90
2022-10-01T10:39:42.946Z,2.70
2022-10-01T10:40:45.014Z,2.80
2022-10-01T10:41:44.463Z,3.00
2022-10-01T10:42:50.577Z,2.80
2022-10-01T10:43:51.874Z,3.40
2022-10-01T10:44:43.801Z,3.40
2022-10-01T10:45:45.210Z,3.30
2022-10-01T10:46:46.292Z,2.90
2022-10-01T10:47:43.906Z,3.20
2022-10-01T10:48:50.986Z,3.30
2022-10-01T10:49:43.072Z,2.90
2022-10-01T10:50:50.754Z,3.90
2022-10-01T10:51:47.090Z,3.10
2022-10-01T10:52:45.637Z,3.70
2022-10-01T10:53:49.389Z,3.90
2022-10-01T10:54:43.928Z,3.80
2022-10-01T10:55:43.261Z,3.80
2022-10-01T10:56:42.768Z,3.80
2022-10-01T10:57:43.872Z,3.90
2022-10-01T10:58:44.444Z,4.00
2022-10-01T10:59:51.267Z,3.70
2022-10-01T11:00:44.650Z,4.00
2022-10-01T11:01:43.735Z,3.80
2022-10-01T11:02:49.655Z,3.90
2022-10-01T11:03:42.525Z,4.00
2022-10-01T11:04:42.526Z,4.30
2022-10-01T11:05:55.237Z,3.90
2022-10-01T11:06:42.721Z,4.80
2022-10-01T11:07:42.806Z,4.30
2022-10-01T11:08:42.657Z,4.20
2022-10-01T11:09:43.375Z,3.50
2022-10-01T11:10:49.228Z,4.30
2022-10-01T11:11:44.045Z,4.50
2022-10-01T11:12:42.433Z,3.90
2022-10-01T11:13:42.882Z,4.00
2022-10-01T11:14:43.177Z,4.60
2022-10-01T11:15:43.300Z,3.90
2022-10-01T11:16:48.643Z,4.50
2022-10-01T11:17:53.593Z,4.20
2022-10-01T11:18:42.628Z,3.90
2022-10-01T11:19:56.852Z,4.20
2022-10-01T11:20:42.611Z,4.00
2022-10-01T11:22:05.356Z,4.10
2022-10-01T11:22:42.182Z,3.80
2022-10-01T11:23:43.392Z,4.60
2022-10-01T11:24:45.163Z,4.20
2022-10-01T11:25:44.397Z,4.50
2022-10-01T11:26:53.419Z,4.30
2022-10-01T11:27:44.437Z,3.70
2022-10-01T11:28:44.008Z,4.00
2022-10-01T11:29:43.425Z,3.90
2022-10-01T11:30:45.701Z,4.30
2022-10-01T11:31:46.064Z,4.10
2022-10-01T11:32:49.982Z,3.70
2022-10-01T11:33:43.561Z,4.30
2022-10-01T11:34:43.159Z,3.80
2022-10-01T11:35:43.225Z,3.60
2022-10-01T11:36:43.055Z,3.30
2022-10-01T11:37:51.478Z,4.10
2022-10-01T11:38:42.277Z,3.30
2022-10-01T11:39:42.369Z,4.40
2022-10-01T11:40:43.896Z,3.80
2022-10-01T11:41:43.489Z,3.70
2022-10-01T11:42:48.526Z,3.50
2022-10-01T11:43:42.083Z,3.50
2022-10-01T11:44:42.830Z,3.00
2022-10-01T11:45:42.989Z,3.40
2022-10-01T11:46:48.495Z,3.30
2022-10-01T11:47:43.105Z,3.40
2022-10-01T11:48:48.612Z,3.10
2022-10-01T11:49:49.105Z,3.30
2022-10-01T11:50:51.593Z,3.00
2022-10-01T11:51:44.187Z,2.70
2022-10-01T11:53:31.261Z,3.40
2022-10-01T11:54:32.367Z,2.90
2022-10-01T11:55:34.060Z,3.50
2022-10-01T11:56:32.260Z,3.00
2022-10-01T11:57:32.593Z,3.70
2022-10-01T11:58:31.932Z,3.50
2022-10-01T11:59:45.299Z,2.70
2022-10-01T12:00:33.224Z,3.30
2022-10-01T12:01:31.301Z,3.30
2022-10-01T12:02:33.165Z,3.50
2022-10-01T12:03:34.114Z,3.40
2022-10-01T12:04:31.112Z,3.10
2022-10-01T12:05:39.845Z,2.80
2022-10-01T12:06:34.061Z,3.30
2022-10-01T12:07:44.751Z,3.30
2022-10-01T12:08:32.214Z,3.30
2022-10-01T12:09:32.037Z,3.60
2022-10-01T12:10:39.035Z,3.40
2022-10-01T12:11:39.631Z,3.60
2022-10-01T12:12:32.841Z,3.60
2022-10-01T12:13:32.359Z,3.10
2022-10-01T12:14:32.461Z,3.30
2022-10-01T12:15:32.003Z,3.50
2022-10-01T12:16:39.133Z,3.70
2022-10-01T12:17:33.845Z,3.90
2022-10-01T12:18:34.509Z,3.70
2022-10-01T12:19:32.298Z,3.70
2022-10-01T12:20:41.321Z,3.70
2022-10-01T12:21:31.624Z,3.40
2022-10-01T12:22:50.545Z,3.00
2022-10-01T12:23:32.046Z,3.40
2022-10-01T12:24:34.888Z,2.50
2022-10-01T12:25:33.771Z,3.00
2022-10-01T12:26:32.701Z,3.00
2022-10-01T12:27:32.942Z,2.30
2022-10-01T12:28:37.280Z,2.70
2022-10-01T12:29:30.968Z,2.50
2022-10-01T12:30:32.132Z,2.80
2022-10-01T12:31:37.068Z,2.80
2022-10-01T12:32:31.554Z,3.20
2022-10-01T12:33:38.875Z,2.70
2022-10-01T12:34:35.294Z,2.70
2022-10-01T12:35:31.945Z,2.70
2022-10-01T12:36:31.549Z,2.60
2022-10-01T12:37:31.495Z,2.90
2022-10-01T12:38:37.208Z,3.40
2022-10-01T12:39:37.252Z,2.60
2022-10-01T12:40:32.438Z,2.80
2022-10-01T12:41:31.973Z,3.20
2022-10-01T12:42:30.591Z,2.90
2022-10-01T12:43:34.086Z,2.80
2022-10-01T12:44:30.938Z,3.10
2022-10-01T12:45:37.371Z,3.00
2022-10-01T12:46:32.094Z,3.20
2022-10-01T12:47:31.541Z,3.00
2022-10-01T12:48:36.328Z,3.30
2022-10-01T12:49:31.412Z,3.20
2022-10-01T12:50:31.724Z,2.90
2022-10-01T12:51:38.382Z,3.30
2022-10-01T12:52:30.386Z,4.10
2022-10-01T12:53:33.028Z,3.80
2022-10-01T12:54:31.415Z,3.50
2022-10-01T12:55:33.072Z,3.30
2022-10-01T12:56:31.347Z,3.60
2022-10-01T12:57:36.654Z,3.40
2022-10-01T12:58:31.750Z,3.40
2022-10-01T12:59:31.188Z,3.80
2022-10-01T13:00:30.874Z,3.50
2022-10-01T13:01:32.389Z,3.70
2022-10-01T13:02:37.855Z,3.50
2022-10-01T13:03:33.085Z,3.60
2022-10-01T13:04:35.361Z,4.00
2022-10-01T13:05:31.253Z,3.60
2022-10-01T13:06:33.193Z,3.90
2022-10-01T13:07:37.744Z,3.80
2022-10-01T13:08:32.685Z,3.80
2022-10-01T13:09:30.290Z,3.60
2022-10-01T13:10:30.909Z,3.60
2022-10-01T13:11:30.183Z,4.00
2022-10-01T13:12:36.672Z,3.60
2022-10-01T13:13:30.674Z,3.80
2022-10-01T13:14:31.486Z,3.60
2022-10-01T13:15:31.661Z,3.80